Time;durP1;ratioP1;P1;durP2;ratioP2;P2;SDS_P1;SDS_P2;PMS_P1;PMS_P2;Temp;Humidity;BMP_temperature;BMP_pressure;BME280_temperature;BME280_humidity;BME280_pressure;Samples;Min_cycle;Max_cycle;Signal;HPM_P1;HPM_P2
2022/10/29 00:02:23;;;;;;;3.65;0.85;;;12.10;99.90;;;;;;5072323;28;20055;-86
2022/10/29 00:04:49;;;;;;;2.97;1.13;;;12.10;99.90;;;;;;5068520;28;20068;-86
2022/10/29 00:07:14;;;;;;;4.60;1.30;;;12.10;99.90;;;;;;5053926;28;20053;-86
2022/10/29 00:09:40;;;;;;;5.63;1.27;;;12.10;99.90;;;;;;5064902;28;20082;-86
2022/10/29 00:12:06;;;;;;;1.77;0.90;;;12.10;99.90;;;;;;5058054;28;20072;-86
2022/10/29 00:14:32;;;;;;;5.03;1.15;;;12.10;99.90;;;;;;5068160;28;20029;-86
2022/10/29 00:16:58;;;;;;;1.33;0.82;;;12.00;99.90;;;;;;5058944;28;20066;-86
2022/10/29 00:19:23;;;;;;;3.60;1.38;;;12.00;99.90;;;;;;5061890;28;20530;-86
2022/10/29 00:21:50;;;;;;;2.63;1.70;;;12.00;99.90;;;;;;5059670;28;20455;-86
2022/10/29 00:24:16;;;;;;;7.55;1.48;;;12.00;99.90;;;;;;5063591;28;20049;-86
2022/10/29 00:26:41;;;;;;;4.68;1.38;;;12.10;99.90;;;;;;5056438;28;20100;-85
2022/10/29 00:29:07;;;;;;;4.05;1.45;;;12.00;99.90;;;;;;5064872;28;20167;-85
2022/10/29 00:31:33;;;;;;;7.40;1.60;;;12.00;99.90;;;;;;5065376;28;20542;-86
2022/10/29 00:33:59;;;;;;;6.80;1.55;;;12.00;99.90;;;;;;5065133;28;20049;-85
2022/10/29 00:36:27;;;;;;;7.78;1.25;;;12.00;99.90;;;;;;5048024;28;20036;-84
2022/10/29 00:38:53;;;;;;;4.93;1.33;;;12.00;99.90;;;;;;5060869;28;20088;-84
2022/10/29 00:41:21;;;;;;;2.30;1.17;;;12.00;99.90;;;;;;5067437;28;20041;-84
2022/10/29 00:43:49;;;;;;;6.15;1.27;;;12.00;99.90;;;;;;5060980;28;20053;-85
2022/10/29 00:46:56;;;;;;;4.95;1.30;;;12.00;99.90;;;;;;5061039;28;20408;-85
2022/10/29 00:49:23;;;;;;;8.27;1.92;;;12.00;99.90;;;;;;5068596;28;20044;-85
2022/10/29 00:51:50;;;;;;;7.53;1.30;;;11.90;99.90;;;;;;5058317;28;20050;-85
2022/10/29 00:54:17;;;;;;;3.70;1.13;;;11.90;99.90;;;;;;5060399;28;20077;-84
2022/10/29 00:57:06;;;;;;;7.95;1.38;;;11.80;99.90;;;;;;5064873;28;20052;-85
2022/10/29 00:59:32;;;;;;;4.60;1.48;;;11.80;99.90;;;;;;5064306;28;20053;-85
2022/10/29 01:01:58;;;;;;;1.73;1.02;;;11.70;99.90;;;;;;5060997;28;20043;-86
2022/10/29 01:04:24;;;;;;;6.55;1.58;;;11.70;99.90;;;;;;5040686;28;20527;-85
2022/10/29 01:06:51;;;;;;;6.75;1.30;;;11.70;99.90;;;;;;5065708;28;20048;-85
2022/10/29 01:09:16;;;;;;;5.93;1.08;;;11.70;99.90;;;;;;5049681;28;20056;-85
2022/10/29 01:11:50;;;;;;;4.50;1.40;;;11.60;99.90;;;;;;5052437;28;20041;-85
2022/10/29 01:14:16;;;;;;;3.42;1.55;;;11.60;99.90;;;;;;5067829;28;20044;-84
2022/10/29 01:16:45;;;;;;;3.85;1.95;;;11.60;99.90;;;;;;5066700;28;20047;-85
2022/10/29 01:19:45;;;;;;;5.18;1.10;;;11.50;99.90;;;;;;5060955;28;20068;-85
2022/10/29 01:22:14;;;;;;;3.40;1.67;;;11.40;99.90;;;;;;5060887;28;20104;-84
2022/10/29 01:24:53;;;;;;;4.22;1.35;;;11.40;99.90;;;;;;5068536;28;20289;-85
2022/10/29 01:27:39;;;;;;;8.55;1.60;;;11.40;99.90;;;;;;5069750;28;20128;-84
2022/10/29 01:30:43;;;;;;;3.22;1.35;;;11.40;99.90;;;;;;5043601;28;20055;-84
2022/10/29 01:33:22;;;;;;;3.60;1.30;;;11.30;99.90;;;;;;5069446;28;20048;-84
2022/10/29 01:35:57;;;;;;;6.22;1.30;;;11.30;99.90;;;;;;5066504;28;20199;-84
2022/10/29 01:38:47;;;;;;;4.32;1.40;;;11.20;99.90;;;;;;5066962;28;20109;-84
2022/10/29 01:41:15;;;;;;;9.55;2.08;;;11.20;99.90;;;;;;5072228;28;20049;-84
2022/10/29 01:43:54;;;;;;;1.58;1.23;;;11.20;99.90;;;;;;5053007;28;20037;-84
2022/10/29 01:46:26;;;;;;;6.30;2.33;;;11.10;99.90;;;;;;5059421;28;20048;-85
2022/10/29 01:48:56;;;;;;;7.20;1.60;;;11.10;99.90;;;;;;5065290;28;20056;-84
2022/10/29 01:51:34;;;;;;;2.65;1.25;;;11.10;99.90;;;;;;5063785;28;20057;-84
2022/10/29 01:54:04;;;;;;;4.53;1.75;;;11.10;99.90;;;;;;5061870;28;20049;-85
2022/10/29 01:56:30;;;;;;;8.32;2.65;;;11.10;99.90;;;;;;5067701;28;20051;-84
2022/10/29 01:58:59;;;;;;;7.38;2.20;;;11.10;99.90;;;;;;5068512;28;20866;-85
2022/10/29 02:01:30;;;;;;;5.38;1.50;;;11.10;99.90;;;;;;5059074;28;20079;-84
2022/10/29 02:03:59;;;;;;;4.68;2.55;;;11.10;99.90;;;;;;5051074;28;20171;-84
2022/10/29 02:06:39;;;;;;;4.57;1.88;;;11.10;99.90;;;;;;5068105;28;20051;-84
2022/10/29 02:09:22;;;;;;;3.67;1.58;;;11.00;99.90;;;;;;5065266;28;20095;-85
2022/10/29 02:11:57;;;;;;;7.13;1.83;;;11.00;99.90;;;;;;5066066;28;20053;-85
2022/10/29 02:14:35;;;;;;;7.88;2.10;;;11.10;99.90;;;;;;5082397;28;20041;-85
2022/10/29 02:17:02;;;;;;;5.82;1.92;;;11.00;99.90;;;;;;5071728;28;20049;-85
2022/10/29 02:19:32;;;;;;;5.47;1.67;;;11.00;99.90;;;;;;5064704;28;20060;-85
2022/10/29 02:21:58;;;;;;;4.25;1.55;;;11.00;99.90;;;;;;5050710;28;20048;-84
2022/10/29 02:24:24;;;;;;;13.35;2.13;;;10.90;99.90;;;;;;5054550;28;20712;-84
2022/10/29 02:26:50;;;;;;;17.08;1.23;;;10.90;99.90;;;;;;5064497;28;20063;-84
2022/10/29 02:29:16;;;;;;;7.63;1.45;;;10.90;99.90;;;;;;5065344;28;20108;-84
2022/10/29 02:31:41;;;;;;;2.45;1.42;;;10.80;99.90;;;;;;5066347;28;20075;-85
2022/10/29 02:34:07;;;;;;;5.60;1.60;;;10.80;99.90;;;;;;5070945;28;20538;-85
2022/10/29 02:36:33;;;;;;;2.58;1.73;;;10.80;99.90;;;;;;5067670;28;20048;-85
2022/10/29 02:38:58;;;;;;;3.95;2.10;;;10.80;99.90;;;;;;5065905;28;20037;-84
2022/10/29 02:41:24;;;;;;;4.32;2.20;;;10.80;99.90;;;;;;5050193;28;20099;-85
2022/10/29 02:43:50;;;;;;;5.60;1.80;;;10.70;99.90;;;;;;5062055;28;20071;-84
2022/10/29 02:46:19;;;;;;;5.40;1.83;;;10.80;99.90;;;;;;5066389;28;20060;-85
2022/10/29 02:48:45;;;;;;;5.35;1.70;;;10.80;99.90;;;;;;5048324;28;20060;-84
2022/10/29 02:51:12;;;;;;;3.25;1.90;;;10.80;99.90;;;;;;5045374;28;20053;-84
2022/10/29 02:53:38;;;;;;;4.82;2.17;;;10.80;99.90;;;;;;5067692;28;20061;-84
2022/10/29 02:56:05;;;;;;;8.90;2.63;;;10.70;99.90;;;;;;5062603;28;20049;-84
2022/10/29 02:58:31;;;;;;;4.30;2.75;;;10.80;99.90;;;;;;5067363;28;20056;-84
2022/10/29 03:00:56;;;;;;;3.58;2.05;;;10.80;99.90;;;;;;5063693;28;20109;-84
2022/10/29 03:03:23;;;;;;;9.75;2.42;;;10.80;99.90;;;;;;5062133;28;20060;-84
2022/10/29 03:05:49;;;;;;;13.60;3.22;;;10.80;99.90;;;;;;5066299;28;20488;-84
2022/10/29 03:08:16;;;;;;;9.88;2.80;;;10.90;99.90;;;;;;5062610;28;20049;-85
2022/10/29 03:10:41;;;;;;;3.78;2.00;;;10.90;99.90;;;;;;5067004;28;20064;-84
2022/10/29 03:13:07;;;;;;;2.35;1.70;;;11.00;99.90;;;;;;5064167;28;20057;-84
2022/10/29 03:15:33;;;;;;;3.30;1.92;;;11.00;99.90;;;;;;5063242;28;20025;-84
2022/10/29 03:17:58;;;;;;;2.80;2.05;;;11.00;99.90;;;;;;5062287;28;20500;-84
2022/10/29 03:20:24;;;;;;;5.63;2.65;;;11.00;99.90;;;;;;5066905;28;20036;-85
2022/10/29 03:22:50;;;;;;;2.38;1.75;;;11.00;99.90;;;;;;5063874;28;20153;-84
2022/10/29 03:25:15;;;;;;;5.75;2.70;;;11.00;99.90;;;;;;5063173;28;20045;-85
2022/10/29 03:27:44;;;;;;;4.00;2.33;;;11.00;99.90;;;;;;5068451;28;20086;-85
2022/10/29 03:30:12;;;;;;;8.02;3.30;;;11.10;99.90;;;;;;5068256;28;20138;-85
2022/10/29 03:32:42;;;;;;;4.95;1.77;;;11.10;99.90;;;;;;5062826;28;20048;-84
2022/10/29 03:35:09;;;;;;;5.85;2.05;;;11.10;99.90;;;;;;5054051;28;20430;-84
2022/10/29 03:37:35;;;;;;;5.10;1.52;;;11.10;99.90;;;;;;5062958;28;20036;-84
2022/10/29 03:40:02;;;;;;;3.95;1.80;;;11.00;99.90;;;;;;5073554;28;20071;-84
2022/10/29 03:42:30;;;;;;;2.55;1.60;;;11.00;99.90;;;;;;5059804;28;20127;-84
2022/10/29 03:44:59;;;;;;;3.45;2.25;;;11.00;99.90;;;;;;5055384;28;20047;-85
2022/10/29 03:47:25;;;;;;;3.17;2.17;;;11.00;99.90;;;;;;5061148;28;20113;-84
2022/10/29 03:49:52;;;;;;;3.83;2.05;;;11.00;99.90;;;;;;5068984;28;20052;-84
2022/10/29 03:52:17;;;;;;;6.03;2.15;;;11.00;99.90;;;;;;5071143;28;20541;-85
2022/10/29 03:54:43;;;;;;;4.18;2.28;;;11.10;99.90;;;;;;5069885;28;20079;-84
2022/10/29 03:57:09;;;;;;;3.13;2.22;;;11.10;99.90;;;;;;5069212;28;20071;-84
2022/10/29 03:59:34;;;;;;;6.10;2.55;;;11.10;99.90;;;;;;5053873;28;20040;-84
2022/10/29 04:02:00;;;;;;;6.43;2.30;;;11.10;99.90;;;;;;5068235;28;20052;-85
2022/10/29 04:04:26;;;;;;;3.90;2.28;;;11.10;99.90;;;;;;5065179;28;20067;-84
2022/10/29 04:06:51;;;;;;;3.47;2.42;;;11.10;99.90;;;;;;5070416;28;20045;-85
2022/10/29 04:09:17;;;;;;;4.07;2.75;;;11.10;99.90;;;;;;5063631;28;20049;-84
2022/10/29 04:11:42;;;;;;;4.93;3.45;;;11.20;99.90;;;;;;5052796;28;20083;-84
2022/10/29 04:14:08;;;;;;;5.78;2.50;;;11.20;99.90;;;;;;5063385;28;20075;-84
2022/10/29 04:16:34;;;;;;;9.30;3.17;;;11.20;99.90;;;;;;5063063;28;20052;-84
2022/10/29 04:19:00;;;;;;;5.50;2.88;;;11.20;99.90;;;;;;5069876;28;20595;-84
2022/10/29 04:21:25;;;;;;;5.07;2.58;;;11.30;99.90;;;;;;5059650;28;20043;-84
2022/10/29 04:23:51;;;;;;;4.60;2.35;;;11.30;99.90;;;;;;5066546;28;20032;-85
2022/10/29 04:26:17;;;;;;;7.40;3.42;;;11.40;99.90;;;;;;5066312;28;20094;-84
2022/10/29 04:28:46;;;;;;;3.63;2.25;;;11.40;99.90;;;;;;5065120;28;20048;-84
2022/10/29 04:31:12;;;;;;;3.17;2.28;;;11.40;99.90;;;;;;5052252;28;20052;-84
2022/10/29 04:33:38;;;;;;;5.63;2.28;;;11.40;99.90;;;;;;5044908;28;20129;-84
2022/10/29 04:36:04;;;;;;;1.95;1.40;;;11.50;99.90;;;;;;5064058;28;21029;-85
2022/10/29 04:38:30;;;;;;;12.32;2.20;;;11.40;99.90;;;;;;5061657;28;20049;-85
2022/10/29 04:41:00;;;;;;;4.53;2.10;;;11.40;99.90;;;;;;5058570;28;20051;-85
2022/10/29 04:43:27;;;;;;;4.38;2.22;;;11.50;99.90;;;;;;5054463;28;20057;-86
2022/10/29 04:45:58;;;;;;;3.92;1.70;;;11.50;99.90;;;;;;5062462;28;20108;-85
2022/10/29 04:48:28;;;;;;;3.15;2.05;;;11.40;99.90;;;;;;5068338;28;20462;-85
2022/10/29 04:50:54;;;;;;;2.40;1.65;;;11.40;99.90;;;;;;5052951;28;20048;-85
2022/10/29 04:53:20;;;;;;;3.20;1.83;;;11.40;99.90;;;;;;5054785;28;20495;-84
2022/10/29 04:55:46;;;;;;;4.00;2.13;;;11.40;99.90;;;;;;5069378;28;20061;-85
2022/10/29 04:58:14;;;;;;;3.58;2.15;;;11.40;99.90;;;;;;5063910;28;20050;-85
2022/10/29 05:00:41;;;;;;;4.13;2.10;;;11.40;99.90;;;;;;5056605;28;20071;-84
2022/10/29 05:03:07;;;;;;;8.73;2.88;;;11.40;99.90;;;;;;5064631;28;20045;-85
2022/10/29 05:05:35;;;;;;;6.90;2.97;;;11.40;99.90;;;;;;5076842;28;20049;-83
2022/10/29 05:08:02;;;;;;;9.48;2.95;;;11.40;99.90;;;;;;5062048;28;20078;-84
2022/10/29 05:10:31;;;;;;;6.88;2.80;;;11.40;99.90;;;;;;5068194;28;20131;-85
2022/10/29 05:13:08;;;;;;;5.03;2.33;;;11.40;99.90;;;;;;5062800;28;20140;-84
2022/10/29 05:15:34;;;;;;;4.68;2.65;;;11.50;99.90;;;;;;5060240;28;20437;-85
2022/10/29 05:18:00;;;;;;;3.45;2.65;;;11.50;99.90;;;;;;5069683;28;20048;-85
2022/10/29 05:20:26;;;;;;;3.30;1.85;;;11.50;99.90;;;;;;5070445;28;20047;-85
2022/10/29 05:23:07;;;;;;;5.97;2.95;;;11.50;99.90;;;;;;5039018;28;20108;-85
2022/10/29 05:25:34;;;;;;;7.80;2.90;;;11.40;99.90;;;;;;5064671;28;20127;-85
2022/10/29 05:28:21;;;;;;;3.88;2.22;;;11.50;99.90;;;;;;5069540;28;20044;-85
2022/10/29 05:30:48;;;;;;;7.75;3.45;;;11.40;99.90;;;;;;5066768;28;20033;-85
2022/10/29 05:33:16;;;;;;;11.68;2.90;;;11.40;99.90;;;;;;5084543;28;20051;-85
2022/10/29 05:35:42;;;;;;;7.93;3.17;;;11.40;99.90;;;;;;5066248;28;20049;-85
2022/10/29 05:38:09;;;;;;;6.15;3.15;;;11.40;99.90;;;;;;5060406;28;20044;-84
2022/10/29 05:40:35;;;;;;;5.47;2.70;;;11.50;99.90;;;;;;5066140;28;20052;-85
2022/10/29 05:43:01;;;;;;;5.47;2.53;;;11.50;99.90;;;;;;5066472;28;20045;-85
2022/10/29 05:45:26;;;;;;;4.18;2.60;;;11.50;99.90;;;;;;5057116;28;20395;-85
2022/10/29 05:48:00;;;;;;;4.47;3.15;;;11.50;99.90;;;;;;5042982;28;20051;-85
2022/10/29 05:50:27;;;;;;;10.45;3.38;;;11.50;99.90;;;;;;5066068;28;20041;-85
2022/10/29 05:52:57;;;;;;;10.15;1.60;;;11.50;99.90;;;;;;5069820;28;20040;-85
2022/10/29 05:55:23;;;;;;;7.32;2.78;;;11.60;99.90;;;;;;5039927;28;20040;-85
2022/10/29 05:57:49;;;;;;;9.13;2.75;;;11.50;99.90;;;;;;5067396;28;20041;-85
2022/10/29 06:00:15;;;;;;;4.20;2.17;;;11.60;99.90;;;;;;5069733;28;20373;-85
2022/10/29 06:02:44;;;;;;;5.53;2.92;;;11.60;99.90;;;;;;5062163;28;20033;-85
2022/10/29 06:05:10;;;;;;;11.45;3.60;;;11.60;99.90;;;;;;5047843;28;20414;-85
2022/10/29 06:07:36;;;;;;;5.45;3.08;;;11.60;99.90;;;;;;5060942;28;20104;-85
2022/10/29 06:10:01;;;;;;;7.15;2.53;;;11.60;99.90;;;;;;5046410;28;20499;-88
2022/10/29 06:12:31;;;;;;;5.80;2.30;;;11.60;99.90;;;;;;5053245;28;20525;-87
2022/10/29 06:14:56;;;;;;;8.55;2.53;;;11.60;99.90;;;;;;5065148;28;20044;-87
2022/10/29 06:17:22;;;;;;;5.90;2.65;;;11.60;99.90;;;;;;5038175;28;20111;-87
2022/10/29 06:19:48;;;;;;;4.68;2.53;;;11.70;99.90;;;;;;5063407;28;20040;-87
2022/10/29 06:22:13;;;;;;;6.95;3.03;;;11.70;99.90;;;;;;5059989;28;20676;-88
2022/10/29 06:24:39;;;;;;;6.18;2.92;;;11.70;99.90;;;;;;5046643;28;20064;-87
2022/10/29 06:27:04;;;;;;;5.65;3.00;;;11.70;99.90;;;;;;5040670;28;20041;-86
2022/10/29 06:29:30;;;;;;;3.83;2.65;;;11.70;99.90;;;;;;5062965;28;20037;-88
2022/10/29 06:31:56;;;;;;;4.88;2.50;;;11.60;99.90;;;;;;5064592;28;20446;-89
2022/10/29 06:34:21;;;;;;;5.05;2.38;;;11.60;99.90;;;;;;5061020;28;20067;-88
2022/10/29 06:36:47;;;;;;;4.25;2.50;;;11.60;99.90;;;;;;5064171;28;20106;-88
2022/10/29 06:39:13;;;;;;;4.55;2.67;;;11.70;99.90;;;;;;5050930;28;20047;-87
2022/10/29 06:41:38;;;;;;;7.65;3.38;;;11.70;99.90;;;;;;5047016;28;20041;-88
2022/10/29 06:44:04;;;;;;;4.53;3.40;;;11.70;99.90;;;;;;5063684;28;20041;-87
2022/10/29 06:46:30;;;;;;;8.10;2.97;;;11.70;99.90;;;;;;5062048;28;20051;-93
2022/10/29 06:48:55;;;;;;;7.43;3.35;;;11.70;99.90;;;;;;5054925;28;20079;-90
2022/10/29 06:51:24;;;;;;;7.13;3.00;;;11.70;99.90;;;;;;5042408;28;20041;-92
2022/10/29 06:53:49;;;;;;;4.10;2.67;;;11.80;99.90;;;;;;5050014;28;21055;-90
2022/10/29 06:56:15;;;;;;;7.63;3.05;;;11.80;99.90;;;;;;5075774;28;20086;-91
2022/10/29 06:58:41;;;;;;;8.25;3.42;;;11.80;99.90;;;;;;5061169;28;20080;-91
2022/10/29 07:01:06;;;;;;;8.85;3.05;;;11.80;99.90;;;;;;5043860;28;20064;-91
2022/10/29 07:03:32;;;;;;;10.85;3.90;;;11.80;99.90;;;;;;5061076;28;20090;-87
2022/10/29 07:05:58;;;;;;;7.78;3.30;;;11.80;99.90;;;;;;5072364;28;20087;-91
2022/10/29 07:08:25;;;;;;;7.50;3.53;;;11.90;99.90;;;;;;5042420;28;20052;-90
2022/10/29 07:10:52;;;;;;;6.90;3.70;;;11.90;99.90;;;;;;5060457;28;20581;-91
2022/10/29 07:13:18;;;;;;;7.18;3.55;;;11.90;99.90;;;;;;5062140;28;20044;-87
2022/10/29 07:15:44;;;;;;;4.05;2.90;;;11.90;99.90;;;;;;5057047;28;20051;-87
2022/10/29 07:18:11;;;;;;;7.50;3.53;;;12.00;99.90;;;;;;5063289;28;20078;-90
2022/10/29 07:20:40;;;;;;;4.93;2.80;;;12.00;99.90;;;;;;5076853;28;20111;-90
2022/10/29 07:23:06;;;;;;;12.25;3.75;;;12.00;99.90;;;;;;5077588;28;20040;-90
2022/10/29 07:25:33;;;;;;;7.38;3.65;;;12.00;99.90;;;;;;5058025;28;20095;-90
2022/10/29 07:28:05;;;;;;;13.32;3.95;;;12.10;99.90;;;;;;5059684;28;20040;-90
2022/10/29 07:30:31;;;;;;;;;;;12.10;99.90;;;;;;5076189;28;20048;-89
2022/10/29 07:32:57;;;;;;;4.28;2.70;;;12.20;99.90;;;;;;5074738;28;19921;-88
2022/10/29 07:35:22;;;;;;;8.50;3.35;;;12.10;99.90;;;;;;5059604;28;20112;-90
2022/10/29 07:37:48;;;;;;;7.10;3.38;;;12.20;99.90;;;;;;5062660;28;20053;-91
2022/10/29 07:40:14;;;;;;;11.30;3.85;;;12.20;99.90;;;;;;5043768;28;20048;-88
2022/10/29 07:42:40;;;;;;;8.75;4.25;;;12.30;99.90;;;;;;5060122;28;20063;-90
2022/10/29 07:45:06;;;;;;;14.35;3.67;;;12.30;99.90;;;;;;5043106;28;20048;-91
2022/10/29 07:47:32;;;;;;;7.30;3.20;;;12.40;99.90;;;;;;5058894;28;20052;-96
2022/10/29 07:49:58;;;;;;;8.27;3.92;;;12.50;99.90;;;;;;5048779;28;20044;-96
2022/10/29 07:52:23;;;;;;;12.35;4.43;;;12.50;99.90;;;;;;5060060;28;20041;-91
2022/10/29 07:54:49;;;;;;;6.65;4.15;;;12.60;99.90;;;;;;5064492;28;20498;-87
2022/10/29 07:57:15;;;;;;;14.98;5.10;;;12.70;99.90;;;;;;5062064;28;20048;-89
2022/10/29 07:59:41;;;;;;;13.77;4.45;;;12.80;99.90;;;;;;5059648;28;20134;-95
2022/10/29 08:02:10;;;;;;;8.32;4.47;;;12.90;99.90;;;;;;5062844;28;20525;-95
2022/10/29 08:04:35;;;;;;;11.15;4.50;;;13.00;99.90;;;;;;5055194;28;20328;-90
2022/10/29 08:07:01;;;;;;;6.35;3.83;;;13.10;99.90;;;;;;5025181;28;20086;-88
2022/10/29 08:09:27;;;;;;;10.20;4.72;;;13.30;99.90;;;;;;5058739;28;20033;-88
2022/10/29 08:11:53;;;;;;;11.35;5.20;;;13.30;99.90;;;;;;5067225;28;20041;-92
2022/10/29 08:14:18;;;;;;;12.75;3.80;;;13.40;99.90;;;;;;5048549;28;20110;-92
2022/10/29 08:16:45;;;;;;;7.07;3.85;;;13.40;99.90;;;;;;5060585;28;20037;-92
2022/10/29 08:19:11;;;;;;;11.57;4.53;;;13.50;99.90;;;;;;5060564;28;20044;-94
2022/10/29 08:21:37;;;;;;;17.40;4.20;;;13.60;99.90;;;;;;5071260;28;20119;-88
2022/10/29 08:24:02;;;;;;;18.10;5.13;;;13.60;99.90;;;;;;5057270;28;20036;-88
2022/10/29 08:26:28;;;;;;;10.00;5.28;;;13.60;99.90;;;;;;5061688;28;20045;-88
2022/10/29 08:28:54;;;;;;;9.50;4.28;;;13.70;99.90;;;;;;5041413;28;20052;-90
2022/10/29 08:31:20;;;;;;;14.43;4.82;;;13.70;99.90;;;;;;5063659;28;20048;-90
2022/10/29 08:33:48;;;;;;;6.80;3.97;;;13.80;99.90;;;;;;5060003;28;20128;-92
2022/10/29 08:36:14;;;;;;;16.17;5.18;;;13.90;99.90;;;;;;5025771;28;20151;-92
2022/10/29 08:38:40;;;;;;;12.70;5.15;;;14.00;99.90;;;;;;5057398;28;20112;-91
2022/10/29 08:41:48;;;;;;;9.57;4.95;;;14.10;99.90;;;;;;5070012;28;20040;-90
2022/10/29 08:44:24;;;;;;;9.52;4.68;;;14.10;99.90;;;;;;5047070;28;20123;-91
2022/10/29 08:47:00;;;;;;;13.13;4.93;;;14.20;99.90;;;;;;5056799;28;20436;-91
2022/10/29 08:49:40;;;;;;;13.90;5.85;;;14.30;99.90;;;;;;5058539;28;20052;-90
2022/10/29 08:52:36;;;;;;;12.13;5.38;;;14.40;99.90;;;;;;5057708;28;20088;-91
2022/10/29 08:55:13;;;;;;;10.93;5.15;;;14.50;99.90;;;;;;5049215;28;20057;-88
2022/10/29 08:58:02;;;;;;;19.10;5.35;;;14.60;99.90;;;;;;5055586;28;20041;-90
2022/10/29 09:00:36;;;;;;;13.15;5.03;;;14.60;99.90;;;;;;5068675;28;20036;-87
2022/10/29 09:03:08;;;;;;;13.52;5.45;;;14.70;99.90;;;;;;5089045;28;20037;-93
2022/10/29 09:05:58;;;;;;;11.48;4.95;;;14.80;99.90;;;;;;5049642;28;20114;-92
2022/10/29 09:08:38;;;;;;;15.20;5.35;;;14.90;99.90;;;;;;5073311;28;20037;-92
2022/10/29 09:11:32;;;;;;;8.63;5.40;;;15.00;99.90;;;;;;5053212;28;20044;-87
2022/10/29 09:14:16;;;;;;;16.05;6.35;;;15.10;99.90;;;;;;5048708;28;20048;-91
2022/10/29 09:17:09;;;;;;;12.43;5.97;;;15.20;99.90;;;;;;5058170;28;20049;-94
2022/10/29 09:19:48;;;;;;;12.45;6.32;;;15.40;99.90;;;;;;5046912;28;20040;-91
2022/10/29 09:22:39;;;;;;;12.25;7.10;;;15.50;99.90;;;;;;5088775;28;20100;-90
2022/10/29 09:25:22;;;;;;;11.43;6.53;;;15.60;99.90;;;;;;5056682;28;20049;-89
2022/10/29 09:28:27;;;;;;;14.10;6.55;;;15.70;99.90;;;;;;5058929;28;20048;-90
2022/10/29 09:31:01;;;;;;;13.85;7.50;;;15.80;99.90;;;;;;5081272;28;20051;-90
2022/10/29 09:33:28;;;;;;;18.67;7.18;;;16.10;99.90;;;;;;5074164;28;20049;-90
2022/10/29 09:35:57;;;;;;;14.88;5.97;;;16.30;99.90;;;;;;5072844;28;20049;-90
2022/10/29 09:38:29;;;;;;;15.07;6.65;;;16.50;99.90;;;;;;5039905;28;20056;-89
2022/10/29 09:40:56;;;;;;;;;;;16.70;99.90;;;;;;5053390;28;20442;-90
2022/10/29 09:43:42;;;;;;;14.98;6.57;;;16.80;99.90;;;;;;5084793;28;19927;-89
2022/10/29 09:46:26;;;;;;;17.88;6.53;;;16.90;99.90;;;;;;5060354;28;20053;-89
2022/10/29 09:49:33;;;;;;;19.88;6.90;;;17.00;99.90;;;;;;5062438;28;20082;-89
2022/10/29 09:52:25;;;;;;;21.60;7.40;;;17.00;99.90;;;;;;5045891;28;20061;-88
2022/10/29 09:54:53;;;;;;;16.20;6.13;;;16.90;99.90;;;;;;5058968;28;20071;-89
2022/10/29 09:57:22;;;;;;;15.98;6.80;;;16.90;99.90;;;;;;5060860;28;20051;-89
2022/10/29 10:00:05;;;;;;;16.30;6.35;;;16.90;99.90;;;;;;5048205;28;20068;-89
2022/10/29 10:02:37;;;;;;;16.40;6.43;;;17.00;99.90;;;;;;5047440;28;20053;-90
2022/10/29 10:05:12;;;;;;;15.90;7.03;;;17.00;99.90;;;;;;5056888;28;20143;-89
2022/10/29 10:07:39;;;;;;;19.63;7.43;;;17.00;99.90;;;;;;5079427;28;20040;-89
2022/10/29 10:10:18;;;;;;;12.50;5.95;;;17.10;99.90;;;;;;5062160;28;20037;-91
2022/10/29 10:12:46;;;;;;;13.63;5.95;;;17.10;99.90;;;;;;5071804;28;20072;-92
2022/10/29 10:15:15;;;;;;;18.42;6.03;;;17.20;99.90;;;;;;5052051;28;20455;-91
2022/10/29 10:18:03;;;;;;;14.02;6.18;;;17.20;99.90;;;;;;5050748;28;20663;-90
2022/10/29 10:20:29;;;;;;;16.15;6.28;;;17.30;99.90;;;;;;5063387;28;20048;-90
2022/10/29 10:22:54;;;;;;;15.82;6.55;;;17.40;99.90;;;;;;5076224;28;20080;-89
2022/10/29 10:25:37;;;;;;;16.85;6.32;;;17.50;99.90;;;;;;5059480;28;20157;-89
2022/10/29 10:28:13;;;;;;;16.10;6.07;;;17.60;99.90;;;;;;5045014;28;20044;-89
2022/10/29 10:30:39;;;;;;;17.00;6.47;;;17.60;99.90;;;;;;5047395;28;20075;-90
2022/10/29 10:33:25;;;;;;;22.20;6.85;;;17.60;99.90;;;;;;5035968;28;20049;-91
2022/10/29 10:35:53;;;;;;;15.27;7.40;;;17.60;99.90;;;;;;5065149;28;20050;-88
2022/10/29 10:38:20;;;;;;;15.85;6.00;;;17.60;99.90;;;;;;5063538;28;20052;-89
2022/10/29 10:41:00;;;;;;;15.43;5.65;;;17.70;99.90;;;;;;5061388;28;20044;-88
2022/10/29 10:43:26;;;;;;;23.83;6.70;;;17.70;99.90;;;;;;5062455;28;20609;-96
2022/10/29 10:45:56;;;;;;;17.27;6.10;;;17.80;99.90;;;;;;5073636;28;20411;-94
2022/10/29 10:48:25;;;;;;;15.20;6.20;;;17.90;99.90;;;;;;5063412;28;20060;-88
2022/10/29 10:51:06;;;;;;;12.85;6.68;;;18.00;99.90;;;;;;5073048;28;20104;-94
2022/10/29 10:53:33;;;;;;;19.73;6.97;;;18.00;99.90;;;;;;5043060;28;20052;-95
2022/10/29 10:55:59;;;;;;;10.98;6.20;;;18.00;99.90;;;;;;5069962;28;20330;-94
2022/10/29 10:58:41;;;;;;;13.88;6.00;;;18.00;99.90;;;;;;5033412;28;20045;-95
2022/10/29 11:01:17;;;;;;;12.32;6.03;;;18.00;99.90;;;;;;5072952;28;20084;-92
2022/10/29 11:03:52;;;;;;;11.90;5.53;;;18.00;99.90;;;;;;5079035;28;20645;-95
2022/10/29 11:06:28;;;;;;;17.92;6.78;;;18.10;99.90;;;;;;5060720;28;20049;-95
2022/10/29 11:09:31;;;;;;;17.45;6.30;;;18.10;99.90;;;;;;5080058;28;20048;-94
2022/10/29 11:12:24;;;;;;;9.00;5.55;;;18.20;99.90;;;;;;5079405;28;20048;-94
2022/10/29 11:14:56;;;;;;;18.55;5.88;;;18.20;99.90;;;;;;5053347;28;20053;-95
2022/10/29 11:17:45;;;;;;;14.50;5.88;;;18.30;99.90;;;;;;5068218;28;20147;-89
2022/10/29 11:20:22;;;;;;;15.07;7.68;;;18.30;99.90;;;;;;5061025;28;20063;-89
2022/10/29 11:23:25;;;;;;;18.20;7.95;;;18.40;99.90;;;;;;5061563;28;20055;-89
2022/10/29 11:26:20;;;;;;;23.15;6.68;;;18.40;99.90;;;;;;5071645;28;20045;-88
2022/10/29 11:28:50;;;;;;;13.63;6.22;;;18.40;99.90;;;;;;5049441;28;20053;-86
2022/10/29 11:31:35;;;;;;;15.73;7.38;;;18.40;99.90;;;;;;5061088;28;20060;-94
2022/10/29 11:34:24;;;;;;;19.02;6.72;;;18.50;99.90;;;;;;5033469;28;20048;-95
2022/10/29 11:37:04;;;;;;;12.85;6.20;;;18.50;99.90;;;;;;5019912;28;20247;-92
2022/10/29 11:39:47;;;;;;;14.60;7.10;;;18.50;99.90;;;;;;5079258;28;20094;-93
2022/10/29 11:42:13;;;;;;;12.07;6.10;;;18.60;99.90;;;;;;5055954;28;20049;-87
2022/10/29 11:44:39;;;;;;;20.00;6.75;;;18.60;99.90;;;;;;5041387;28;20144;-89
2022/10/29 11:47:23;;;;;;;12.82;6.30;;;18.70;99.90;;;;;;5046330;28;20097;-89
2022/10/29 11:50:07;;;;;;;16.80;5.75;;;18.70;99.90;;;;;;5066200;28;20457;-87
2022/10/29 11:52:36;;;;;;;20.38;6.47;;;18.80;99.90;;;;;;5066367;28;20048;-87
2022/10/29 11:55:18;;;;;;;21.65;7.55;;;18.80;99.90;;;;;;5077555;28;20121;-89
2022/10/29 11:57:52;;;;;;;;;;;18.80;99.90;;;;;;5060955;28;20125;-88
2022/10/29 12:00:20;;;;;;;11.65;5.70;;;18.80;99.90;;;;;;5064949;28;19996;-87
2022/10/29 12:03:03;;;;;;;13.45;5.47;;;19.00;99.90;;;;;;5060963;28;20040;-89
2022/10/29 12:05:54;;;;;;;18.67;5.43;;;19.10;99.90;;;;;;5077060;28;20121;-90
2022/10/29 12:08:50;;;;;;;19.07;6.83;;;19.30;99.90;;;;;;5048860;28;20081;-89
2022/10/29 12:11:25;;;;;;;13.50;6.50;;;19.40;99.90;;;;;;5058283;28;20037;-91
2022/10/29 12:13:56;;;;;;;16.83;5.93;;;19.60;99.90;;;;;;5063817;28;20116;-88
2022/10/29 12:16:34;;;;;;;12.98;6.00;;;19.80;99.90;;;;;;5060148;28;20052;-89
2022/10/29 12:19:10;;;;;;;14.02;6.25;;;19.80;99.90;;;;;;5061056;28;20286;-90
2022/10/29 12:22:15;;;;;;;17.80;6.47;;;19.80;99.90;;;;;;5070802;28;20048;-89
2022/10/29 12:25:06;;;;;;;17.05;6.07;;;19.70;99.90;;;;;;5043301;28;20049;-89
2022/10/29 12:28:04;;;;;;;17.13;6.20;;;19.60;99.90;;;;;;5069836;28;20452;-80
2022/10/29 12:30:38;;;;;;;17.13;7.35;;;19.50;99.90;;;;;;5085927;28;20064;-80
2022/10/29 12:33:03;;;;;;;17.13;6.72;;;19.40;99.90;;;;;;5070134;28;20056;-80
2022/10/29 12:35:35;;;;;;;15.43;6.32;;;19.40;99.90;;;;;;5067573;28;20048;-81
2022/10/29 12:38:24;;;;;;;14.35;5.53;;;19.30;99.90;;;;;;5067190;28;20073;-82
2022/10/29 12:40:57;;;;;;;25.02;6.00;;;19.30;99.90;;;;;;5071900;28;20061;-82
2022/10/29 12:43:29;;;;;;;18.30;5.65;;;19.30;99.90;;;;;;5068972;28;20044;-82
2022/10/29 12:46:21;;;;;;;14.38;5.43;;;19.30;99.90;;;;;;5069018;28;20382;-82
2022/10/29 12:48:52;;;;;;;;;;;19.30;99.90;;;;;;5068532;28;20052;-83
2022/10/29 12:51:25;;;;;;;14.73;6.32;;;19.30;99.90;;;;;;5069479;28;19924;-82
2022/10/29 12:53:58;;;;;;;14.57;6.10;;;19.40;99.90;;;;;;5059230;28;20391;-82
2022/10/29 12:56:26;;;;;;;13.98;6.28;;;19.40;99.90;;;;;;5068021;28;20515;-84
2022/10/29 12:58:55;;;;;;;12.65;6.25;;;19.30;99.90;;;;;;5061354;28;20056;-82
2022/10/29 13:01:27;;;;;;;18.60;6.43;;;19.30;99.90;;;;;;5073914;28;20044;-82
2022/10/29 13:03:59;;;;;;;11.45;5.47;;;19.30;99.90;;;;;;5062381;28;20041;-83
2022/10/29 13:06:44;;;;;;;20.75;6.70;;;19.30;99.90;;;;;;5067815;28;20063;-82